createdAt,value
2019-05-20T00:00:16.408Z,18.40
2019-05-20T00:02:45.680Z,17.97
2019-05-20T00:05:14.866Z,17.93
2019-05-20T00:07:44.019Z,18.60
2019-05-20T00:10:13.270Z,19.17
2019-05-20T00:12:42.668Z,20.10
2019-05-20T00:15:11.817Z,21.33
2019-05-20T00:17:40.970Z,20.90
2019-05-20T00:20:10.387Z,21.70
2019-05-20T00:22:39.590Z,21.47
2019-05-20T00:25:09.570Z,23.17
2019-05-20T00:27:38.774Z,22.40
2019-05-20T00:30:09.244Z,23.40
2019-05-20T00:32:41.699Z,23.47
2019-05-20T00:35:09.429Z,23.40
2019-05-20T00:37:38.632Z,23.63
2019-05-20T00:40:08.110Z,23.33
2019-05-20T00:42:37.333Z,22.47
2019-05-20T00:45:06.794Z,22.13
2019-05-20T00:47:36.029Z,21.83
2019-05-20T00:50:05.521Z,22.87
2019-05-20T00:52:34.678Z,22.87
2019-05-20T00:55:05.675Z,23.17
2019-05-20T00:57:34.867Z,24.60
2019-05-20T01:00:05.775Z,23.57
2019-05-20T01:02:34.953Z,23.47
2019-05-20T01:05:04.214Z,21.97
2019-05-20T01:07:33.354Z,21.73
2019-05-20T01:10:02.531Z,23.50
2019-05-20T01:12:31.733Z,24.37
2019-05-20T01:15:00.981Z,25.67
2019-05-20T01:17:30.134Z,25.73
2019-05-20T01:19:59.321Z,25.33
2019-05-20T01:22:28.508Z,25.27
2019-05-20T01:24:57.904Z,36.42
2019-05-20T01:27:27.060Z,33.55
2019-05-20T01:29:56.298Z,32.58
2019-05-20T01:32:25.459Z,36.17
2019-05-20T01:34:54.710Z,32.17
2019-05-20T01:37:23.900Z,34.85
2019-05-20T01:39:53.170Z,33.20
2019-05-20T01:42:22.522Z,33.48
2019-05-20T01:44:51.712Z,32.88
2019-05-20T01:47:20.869Z,34.85
2019-05-20T01:49:50.142Z,36.30
2019-05-20T01:52:19.286Z,38.08
2019-05-20T01:54:48.566Z,40.88
2019-05-20T01:57:17.793Z,40.50
2019-05-20T01:59:47.010Z,37.45
2019-05-20T02:02:16.180Z,38.63
2019-05-20T02:04:46.496Z,41.83
2019-05-20T02:07:15.844Z,44.03
2019-05-20T02:09:46.578Z,45.80
2019-05-20T02:12:15.774Z,46.40
2019-05-20T02:14:57.131Z,51.02
2019-05-20T02:17:26.299Z,51.68
2019-05-20T02:19:55.472Z,56.63
2019-05-20T02:22:24.728Z,58.42
2019-05-20T02:24:54.922Z,59.83
2019-05-20T02:27:25.228Z,64.50
2019-05-20T02:29:55.436Z,55.83
2019-05-20T02:32:24.636Z,61.00
2019-05-20T02:34:53.885Z,61.50
2019-05-20T02:37:23.119Z,62.43
2019-05-20T02:39:52.265Z,63.60
2019-05-20T02:42:21.452Z,62.63
2019-05-20T02:44:50.608Z,65.33
2019-05-20T02:47:19.812Z,68.57
2019-05-20T02:49:49.003Z,71.23
2019-05-20T02:52:18.223Z,70.13
2019-05-20T02:54:47.529Z,68.83
2019-05-20T02:57:16.751Z,66.67
2019-05-20T02:59:45.961Z,72.60
2019-05-20T03:02:15.235Z,69.43
2019-05-20T03:04:44.450Z,72.77
2019-05-20T03:07:14.735Z,71.20
2019-05-20T03:09:43.961Z,71.27
2019-05-20T03:12:13.263Z,71.63
2019-05-20T03:14:42.427Z,70.77
2019-05-20T03:17:11.611Z,68.90
2019-05-20T03:19:40.820Z,67.37
2019-05-20T03:22:09.988Z,65.87
2019-05-20T03:24:39.197Z,66.73
2019-05-20T03:27:08.625Z,64.20
2019-05-20T03:29:37.845Z,64.27
2019-05-20T03:32:08.845Z,65.13
2019-05-20T03:34:46.722Z,65.23
2019-05-20T03:37:09.050Z,68.20
2019-05-20T03:39:38.260Z,63.13
2019-05-20T03:42:09.233Z,62.23
2019-05-20T03:44:40.375Z,61.40
2019-05-20T03:47:09.655Z,59.10
2019-05-20T03:49:38.916Z,61.17
2019-05-20T03:52:08.264Z,60.50
2019-05-20T03:54:37.571Z,59.17
2019-05-20T03:57:06.874Z,58.13
2019-05-20T03:59:36.063Z,56.23
2019-05-20T04:02:05.284Z,56.50
2019-05-20T04:04:34.439Z,56.00
2019-05-20T04:07:03.634Z,54.27
2019-05-20T04:09:32.839Z,54.57
2019-05-20T04:12:02.049Z,55.03
2019-05-20T04:14:31.349Z,56.87
2019-05-20T04:17:00.693Z,54.43
2019-05-20T04:19:29.950Z,55.47
2019-05-20T04:21:59.171Z,53.13
2019-05-20T04:24:29.442Z,52.87
2019-05-20T04:27:02.281Z,54.17
2019-05-20T04:29:31.547Z,53.03
2019-05-20T04:32:00.737Z,54.50
2019-05-20T04:34:29.975Z,55.27
2019-05-20T04:36:59.282Z,55.77
2019-05-20T04:39:29.654Z,52.87
2019-05-20T04:41:58.856Z,53.17
2019-05-20T04:44:28.018Z,51.30
2019-05-20T04:46:58.132Z,50.70
2019-05-20T04:49:27.504Z,50.53
2019-05-20T04:51:57.041Z,48.37
2019-05-20T04:54:26.204Z,49.30
2019-05-20T04:56:55.358Z,47.37
2019-05-20T04:59:24.646Z,48.23
2019-05-20T05:01:53.846Z,48.03
2019-05-20T05:04:23.010Z,48.00
2019-05-20T05:06:52.169Z,47.70
2019-05-20T05:09:21.353Z,44.30
2019-05-20T05:11:50.511Z,45.57
2019-05-20T05:14:19.789Z,47.60
2019-05-20T05:16:48.937Z,48.20
2019-05-20T05:19:18.144Z,48.27
2019-05-20T05:21:47.311Z,45.67
2019-05-20T05:24:16.501Z,45.93
2019-05-20T05:26:47.812Z,47.67
2019-05-20T05:29:16.579Z,47.03
2019-05-20T05:31:45.725Z,46.87
2019-05-20T05:34:14.931Z,46.10
2019-05-20T05:36:44.129Z,48.27
2019-05-20T05:39:14.852Z,44.83
2019-05-20T05:41:44.060Z,43.53
2019-05-20T05:44:13.482Z,46.60
2019-05-20T05:46:44.483Z,46.43
2019-05-20T05:49:13.792Z,47.37
2019-05-20T05:51:43.129Z,47.67
2019-05-20T05:54:12.325Z,47.30
2019-05-20T05:56:41.525Z,47.97
2019-05-20T05:59:10.811Z,47.27
2019-05-20T06:01:40.041Z,47.47
2019-05-20T06:04:09.193Z,45.80
2019-05-20T06:06:39.607Z,44.83
2019-05-20T06:09:09.095Z,44.83
2019-05-20T06:11:38.266Z,45.47
2019-05-20T06:14:07.488Z,45.63
2019-05-20T06:16:37.234Z,45.60
2019-05-20T06:19:06.594Z,46.33
2019-05-20T06:21:35.800Z,46.30
2019-05-20T06:24:05.061Z,46.73
2019-05-20T06:26:34.365Z,47.57
2019-05-20T06:29:03.565Z,47.20
2019-05-20T06:31:32.818Z,46.87
2019-05-20T06:34:03.503Z,47.30
2019-05-20T06:36:35.847Z,47.23
2019-05-20T06:39:12.698Z,47.20
2019-05-20T06:41:42.705Z,44.87
2019-05-20T06:44:11.991Z,45.03
2019-05-20T06:46:41.298Z,45.57
2019-05-20T06:49:10.490Z,43.97
2019-05-20T06:51:39.700Z,42.97
2019-05-20T06:54:08.948Z,44.37
2019-05-20T07:28:49.356Z,51.92
2019-05-20T07:31:18.580Z,53.02
2019-05-20T07:33:47.774Z,50.80
2019-05-20T07:36:16.934Z,48.63
2019-05-20T07:38:46.154Z,50.30
2019-05-20T07:41:16.796Z,49.85
2019-05-20T07:43:46.095Z,50.45
2019-05-20T07:46:15.494Z,53.28
2019-05-20T07:48:44.878Z,50.25
2019-05-20T07:51:14.656Z,48.83
2019-05-20T07:53:44.047Z,48.30
2019-05-20T07:56:16.485Z,49.30
2019-05-20T07:58:48.655Z,48.38
2019-05-20T08:01:17.840Z,49.05
2019-05-20T08:03:47.024Z,51.00
2019-05-20T08:06:16.179Z,52.43
2019-05-20T08:08:45.379Z,53.10
2019-05-20T08:11:14.562Z,54.93
2019-05-20T08:13:43.739Z,56.80
2019-05-20T08:16:12.882Z,55.08
2019-05-20T08:18:42.087Z,56.20
2019-05-20T08:21:11.372Z,58.02
2019-05-20T08:23:40.569Z,56.92
2019-05-20T08:26:09.806Z,58.00
2019-05-20T08:28:38.981Z,55.70
2019-05-20T08:31:08.185Z,55.35
2019-05-20T08:33:37.441Z,56.73
2019-05-20T08:36:06.597Z,60.03
2019-05-20T08:38:36.974Z,58.17
2019-05-20T08:41:06.195Z,57.60
2019-05-20T08:43:35.440Z,52.95
2019-05-20T08:46:04.870Z,50.43
2019-05-20T08:48:34.157Z,54.98
2019-05-20T08:51:03.369Z,52.70
2019-05-20T08:53:32.578Z,53.15
2019-05-20T08:56:01.913Z,54.38
2019-05-20T08:58:31.177Z,51.70
2019-05-20T09:01:00.554Z,51.95
2019-05-20T09:03:30.649Z,54.40
2019-05-20T09:06:00.076Z,51.42
2019-05-20T09:08:30.861Z,53.83
2019-05-20T09:11:00.027Z,54.80
2019-05-20T09:13:30.472Z,53.98
2019-05-20T09:15:59.644Z,55.12
2019-05-20T09:21:11.563Z,56.98
2019-05-20T09:23:40.897Z,53.50
2019-05-20T09:26:10.100Z,53.30
2019-05-20T09:28:39.384Z,53.87
2019-05-20T09:31:08.709Z,54.38
2019-05-20T09:33:38.215Z,58.00
2019-05-20T09:36:07.385Z,54.45
2019-05-20T09:38:37.174Z,53.48
2019-05-20T09:41:06.491Z,52.83
2019-05-20T09:43:35.704Z,51.13
2019-05-20T09:46:07.954Z,53.68
2019-05-20T09:48:35.905Z,53.23
2019-05-20T09:51:05.368Z,53.92
2019-05-20T09:53:34.526Z,54.80
2019-05-20T09:56:03.945Z,55.52
2019-05-20T09:58:33.257Z,56.63
2019-05-20T10:01:02.456Z,56.30
2019-05-20T10:03:31.621Z,52.75
2019-05-20T10:06:00.787Z,54.27
2019-05-20T10:08:38.866Z,56.25
2019-05-20T10:11:01.488Z,54.75
2019-05-20T10:13:30.758Z,57.05
2019-05-20T10:15:59.961Z,54.15
2019-05-20T10:18:37.224Z,55.50
2019-05-20T10:21:00.072Z,58.92
2019-05-20T10:23:29.250Z,58.85
2019-05-20T10:25:58.450Z,56.18
2019-05-20T10:28:27.738Z,54.93
2019-05-20T10:30:56.934Z,54.18
2019-05-20T10:33:26.227Z,53.75
2019-05-20T10:35:55.503Z,52.93
2019-05-20T10:38:24.718Z,53.10
2019-05-20T10:40:54.023Z,52.78
2019-05-20T10:43:23.238Z,54.20
2019-05-20T10:45:52.443Z,57.35
2019-05-20T10:48:21.661Z,55.80
2019-05-20T10:50:50.884Z,55.75
2019-05-20T10:53:20.183Z,54.70
2019-05-20T10:55:49.666Z,54.48
2019-05-20T10:58:18.882Z,55.50
2019-05-20T11:01:01.686Z,55.33
2019-05-20T11:03:18.965Z,54.08
2019-05-20T11:05:48.171Z,52.55
2019-05-20T11:08:17.466Z,55.35
2019-05-20T11:10:46.661Z,52.62
2019-05-20T11:13:16.233Z,52.30
2019-05-20T11:15:45.424Z,51.47
2019-05-20T11:18:14.614Z,46.83
2019-05-20T11:20:43.832Z,45.90
2019-05-20T11:23:13.005Z,43.15
2019-05-20T11:25:42.210Z,43.08
2019-05-20T11:28:12.064Z,40.40
2019-05-20T11:30:41.464Z,41.30
2019-05-20T11:33:10.645Z,43.90
2019-05-20T11:35:39.849Z,42.73
2019-05-20T11:38:09.120Z,41.93
2019-05-20T11:40:38.304Z,41.68
2019-05-20T11:43:07.542Z,40.87
2019-05-20T11:45:36.702Z,38.40
2019-05-20T11:48:05.937Z,38.75
2019-05-20T11:50:35.157Z,39.05
2019-05-20T11:53:04.442Z,39.92
2019-05-20T11:55:33.751Z,39.63
2019-05-20T11:58:15.482Z,40.58
2019-05-20T12:00:33.941Z,40.00
2019-05-20T12:03:03.206Z,38.42
2019-05-20T12:05:32.448Z,38.95
2019-05-20T12:08:02.338Z,41.05
2019-05-20T12:10:31.591Z,41.02
2019-05-20T12:13:00.967Z,40.55
2019-05-20T12:15:30.181Z,40.95
2019-05-20T12:17:59.595Z,39.30
2019-05-20T12:20:29.014Z,39.98
2019-05-20T12:22:58.395Z,38.80
2019-05-20T12:25:27.720Z,38.35
2019-05-20T12:27:56.991Z,40.35
2019-05-20T12:30:26.395Z,39.27
2019-05-20T12:33:17.090Z,39.03
2019-05-20T12:35:26.489Z,40.92
2019-05-20T12:37:55.815Z,39.75
2019-05-20T12:40:25.031Z,41.58
2019-05-20T12:42:54.280Z,41.20
2019-05-20T12:45:23.609Z,41.40
2019-05-20T12:47:53.046Z,39.45
2019-05-20T12:50:22.588Z,40.12
2019-05-20T12:52:51.754Z,38.45
2019-05-20T12:55:21.253Z,38.95
2019-05-20T12:57:50.469Z,37.77
2019-05-20T13:00:20.387Z,37.78
2019-05-20T13:02:49.538Z,38.23
2019-05-20T13:05:18.808Z,35.88
2019-05-20T13:07:48.214Z,37.55
2019-05-20T13:10:29.317Z,37.67
2019-05-20T13:12:48.736Z,39.05
2019-05-20T13:15:18.000Z,37.20
2019-05-20T13:17:47.254Z,37.37
2019-05-20T13:20:16.502Z,37.98
2019-05-20T13:22:45.727Z,38.65
2019-05-20T13:25:15.190Z,37.55
2019-05-20T13:27:44.323Z,38.95
2019-05-20T13:30:13.801Z,38.13
2019-05-20T13:32:43.008Z,40.03
2019-05-20T13:35:12.346Z,39.37
2019-05-20T13:37:41.520Z,37.95
2019-05-20T13:40:10.927Z,38.67
2019-05-20T13:42:40.127Z,37.98
2019-05-20T13:45:10.167Z,40.40
2019-05-20T13:47:39.461Z,40.03
2019-05-20T13:50:10.606Z,38.20
2019-05-20T13:52:39.828Z,39.30
2019-05-20T13:55:10.718Z,39.75
2019-05-20T13:57:39.925Z,36.93
2019-05-20T14:00:09.456Z,39.55
2019-05-20T14:02:38.928Z,38.02
2019-05-20T14:05:08.189Z,38.73
2019-05-20T14:07:37.438Z,39.23
2019-05-20T14:10:07.010Z,40.58
2019-05-20T14:12:36.202Z,39.00
2019-05-20T14:15:05.969Z,39.18
2019-05-20T14:17:35.134Z,39.75
2019-05-20T14:20:05.641Z,41.48
2019-05-20T14:22:34.829Z,39.30
2019-05-20T14:25:04.362Z,38.33
2019-05-20T14:27:33.552Z,39.10
2019-05-20T14:30:04.266Z,39.80
2019-05-20T14:32:33.534Z,39.15
2019-05-20T14:35:02.786Z,39.92
2019-05-20T14:37:31.954Z,38.10
2019-05-20T14:40:02.331Z,37.03
2019-05-20T14:42:31.543Z,37.08
2019-05-20T14:45:00.744Z,35.80
2019-05-20T14:47:30.119Z,35.10
2019-05-20T14:49:59.329Z,35.23
2019-05-20T14:52:28.503Z,34.23
2019-05-20T14:54:57.862Z,34.45
2019-05-20T14:57:27.397Z,35.38
2019-05-20T14:59:56.815Z,33.75
2019-05-20T15:02:25.967Z,35.53
2019-05-20T15:04:56.998Z,36.25
2019-05-20T15:07:30.765Z,34.95
2019-05-20T15:09:57.196Z,34.65
2019-05-20T15:12:26.473Z,34.38
2019-05-20T15:14:55.641Z,33.23
2019-05-20T15:17:24.792Z,33.55
2019-05-20T15:19:54.034Z,34.55
2019-05-20T15:22:23.205Z,36.30
2019-05-20T15:24:52.464Z,36.45
2019-05-20T15:27:21.672Z,35.73
2019-05-20T15:29:50.860Z,35.20
2019-05-20T15:32:20.033Z,34.23
2019-05-20T15:34:49.269Z,33.50
2019-05-20T15:37:18.502Z,31.80
2019-05-20T15:39:47.725Z,30.65
2019-05-20T15:42:16.906Z,29.15
2019-05-20T15:44:46.123Z,30.30
2019-05-20T15:47:18.604Z,31.00
2019-05-20T15:49:46.346Z,32.48
2019-05-20T15:52:15.520Z,32.08
2019-05-20T15:54:44.897Z,33.00
2019-05-20T15:57:14.159Z,32.75
2019-05-20T15:59:46.299Z,33.28
2019-05-20T16:02:14.527Z,34.60
2019-05-20T16:04:43.680Z,33.85
2019-05-20T16:07:12.850Z,34.50
2019-05-20T16:09:42.072Z,35.30
2019-05-20T16:12:11.390Z,34.90
2019-05-20T16:14:40.622Z,34.95
2019-05-20T16:17:09.820Z,36.73
2019-05-20T16:19:39.046Z,37.15
2019-05-20T16:22:08.298Z,36.23
2019-05-20T16:24:37.612Z,33.30
2019-05-20T16:27:07.037Z,35.27
2019-05-20T16:32:04.466Z,34.97
2019-05-20T17:19:08.749Z,37.70
2019-05-20T17:21:37.995Z,37.98
2019-05-20T17:24:07.232Z,38.75
2019-05-20T17:26:36.428Z,38.02
2019-05-20T17:29:05.639Z,37.55
2019-05-20T17:31:34.845Z,37.73
2019-05-20T17:34:04.027Z,37.63
2019-05-20T17:36:33.249Z,36.53
2019-05-20T17:39:02.514Z,38.58
2019-05-20T17:41:31.773Z,38.23
2019-05-20T17:44:01.035Z,37.88
2019-05-20T17:46:30.206Z,36.65
2019-05-20T17:48:59.458Z,37.43
2019-05-20T17:51:28.651Z,37.80
2019-05-20T17:53:57.899Z,37.25
2019-05-20T17:56:27.154Z,36.65
2019-05-20T17:58:57.458Z,34.92
2019-05-20T18:01:27.772Z,33.75
2019-05-20T18:03:57.112Z,31.60
2019-05-20T18:06:26.418Z,32.45
2019-05-20T18:08:57.302Z,31.77
2019-05-20T18:11:26.755Z,32.08
2019-05-20T18:13:56.138Z,31.25
2019-05-20T18:16:25.401Z,30.25
2019-05-20T18:18:56.585Z,30.20
2019-05-20T18:21:25.802Z,31.60
2019-05-20T18:23:55.132Z,32.03
2019-05-20T18:26:24.500Z,32.78
2019-05-20T18:28:53.856Z,32.15
2019-05-20T18:31:32.087Z,31.90
2019-05-20T18:33:54.261Z,33.92
2019-05-20T18:36:23.699Z,32.88
2019-05-20T18:38:53.078Z,32.10
2019-05-20T18:41:22.368Z,31.97
2019-05-20T18:43:51.870Z,32.93
2019-05-20T18:46:22.390Z,32.85
2019-05-20T18:48:53.631Z,32.65
2019-05-20T18:51:23.856Z,32.85
2019-05-20T18:53:53.367Z,32.45
2019-05-20T18:56:25.076Z,32.53
2019-05-20T18:58:54.314Z,32.17
2019-05-20T19:01:23.641Z,32.13
2019-05-20T19:03:54.592Z,31.82
2019-05-20T19:06:24.186Z,31.42
2019-05-20T19:08:53.468Z,31.60
2019-05-20T19:11:27.868Z,31.27
2019-05-20T19:13:57.193Z,30.80
2019-05-20T19:16:27.119Z,30.68
2019-05-20T19:18:56.609Z,31.73
2019-05-20T19:21:31.200Z,31.82
2019-05-20T19:24:00.502Z,32.08
2019-05-20T19:26:29.823Z,32.08
2019-05-20T19:28:59.536Z,32.60
2019-05-20T19:31:29.195Z,33.13
2019-05-20T19:33:58.521Z,32.67
2019-05-20T19:36:27.818Z,33.00
2019-05-20T19:38:59.442Z,34.48
2019-05-20T19:41:29.464Z,33.53
2019-05-20T19:43:59.075Z,34.10
2019-05-20T19:46:30.844Z,33.55
2019-05-20T19:49:00.118Z,30.20
2019-05-20T19:51:29.418Z,28.45
2019-05-20T19:53:59.574Z,27.05
2019-05-20T19:56:28.895Z,26.85
2019-05-20T19:58:58.154Z,27.30
2019-05-20T20:01:27.774Z,27.17
2019-05-20T20:03:57.063Z,28.32
2019-05-20T20:06:26.325Z,28.83
2019-05-20T20:08:55.651Z,29.20
2019-05-20T20:11:25.191Z,30.92
2019-05-20T20:13:54.480Z,33.23
2019-05-20T20:16:23.905Z,31.57
2019-05-20T20:18:55.422Z,31.57
2019-05-20T20:21:24.655Z,32.30
2019-05-20T20:23:54.002Z,30.23
2019-05-20T20:26:23.247Z,29.57
2019-05-20T20:28:52.630Z,27.58
2019-05-20T20:31:23.655Z,28.30
2019-05-20T20:33:53.113Z,28.30
2019-05-20T20:36:22.356Z,27.43
2019-05-20T20:38:51.596Z,27.60
2019-05-20T20:41:20.896Z,29.30
2019-05-20T20:43:50.168Z,26.15
2019-05-20T20:46:19.462Z,26.87
2019-05-20T20:48:49.847Z,27.15
2019-05-20T20:51:20.321Z,27.17
2019-05-20T20:53:49.844Z,25.92
2019-05-20T20:56:25.274Z,26.75
2019-05-20T20:58:49.973Z,26.57
2019-05-20T21:01:19.263Z,26.37
2019-05-20T21:03:48.794Z,26.15
2019-05-20T21:06:18.015Z,24.95
2019-05-20T21:08:47.283Z,24.83
2019-05-20T21:11:16.505Z,27.07
2019-05-20T21:13:45.688Z,27.57
2019-05-20T21:16:14.887Z,26.85
2019-05-20T21:18:44.146Z,26.12
2019-05-20T21:21:14.057Z,25.00
2019-05-20T21:23:43.239Z,24.90
2019-05-20T21:26:12.461Z,22.65
2019-05-20T21:28:41.695Z,20.60
2019-05-20T21:31:10.861Z,20.05
2019-05-20T21:33:40.057Z,20.65
2019-05-20T21:36:09.283Z,19.87
2019-05-20T21:38:38.456Z,21.33
2019-05-20T21:41:07.682Z,20.25
2019-05-20T21:43:38.796Z,20.30
2019-05-20T21:46:08.028Z,21.65
2019-05-20T21:48:37.266Z,21.90
2019-05-20T21:51:06.651Z,25.82
2019-05-20T21:53:35.940Z,25.68
2019-05-20T21:56:05.182Z,24.37
2019-05-20T21:58:34.350Z,22.80
2019-05-20T22:01:04.030Z,20.35
2019-05-20T22:03:33.310Z,22.30
2019-05-20T22:06:02.497Z,21.35
2019-05-20T22:08:31.694Z,21.20
2019-05-20T22:11:01.743Z,24.35
2019-05-20T22:13:31.018Z,26.57
2019-05-20T22:16:00.184Z,26.95
2019-05-20T22:18:29.502Z,28.38
2019-05-20T22:20:58.845Z,30.60
2019-05-20T22:23:48.927Z,31.48
2019-05-20T22:26:18.127Z,30.10
2019-05-20T22:28:47.440Z,29.10
2019-05-20T22:31:16.705Z,29.77
2019-05-20T22:33:45.908Z,28.90
2019-05-20T22:36:15.101Z,29.60
2019-05-20T22:38:44.374Z,28.62
2019-05-20T22:41:13.527Z,28.15
2019-05-20T22:43:42.826Z,30.05
2019-05-20T22:46:12.177Z,31.87
2019-05-20T22:48:41.347Z,32.05
2019-05-20T22:51:10.545Z,32.03
2019-05-20T22:53:39.828Z,29.67
2019-05-20T22:56:09.027Z,30.23
2019-05-20T23:01:20.375Z,25.43
2019-05-20T23:03:56.369Z,25.17
2019-05-20T23:06:20.586Z,23.85
2019-05-20T23:08:49.756Z,21.55
2019-05-20T23:11:19.034Z,21.17
2019-05-20T23:13:48.234Z,21.75
2019-05-20T23:16:17.410Z,21.85
2019-05-20T23:18:46.626Z,21.02
2019-05-20T23:21:15.848Z,20.60
2019-05-20T23:23:45.137Z,20.40
2019-05-20T23:26:14.339Z,21.70
2019-05-20T23:28:43.635Z,23.73
2019-05-20T23:31:14.526Z,25.20
2019-05-20T23:33:43.864Z,26.68
2019-05-20T23:36:13.061Z,27.20
2019-05-20T23:38:42.286Z,29.63
2019-05-20T23:41:11.633Z,30.05
2019-05-20T23:43:40.867Z,28.02
2019-05-20T23:46:10.100Z,28.50
2019-05-20T23:48:39.386Z,26.97
2019-05-20T23:51:10.389Z,29.07
2019-05-20T23:53:39.612Z,28.23
2019-05-20T23:56:08.879Z,28.80
2019-05-20T23:58:38.057Z,30.25
